Climatologie pour Saint-Brevin les Pins
Jour • Résumé pour mars 24, 2017 Système :  Métrique    Anglais   Mixte
« - 1 jour
+ 1 jour »
Jour Semaine Mois Année Personnalisé
  Maximum : Minimum : Moyenne :
Température sous abri : 14.4 °C 2.1 °C 8.6 °C
Point de rosée : 9.0 °C 1.6 °C 6.1 °C
Humidité : 98 % 58 % 86 %
Vitesse du vent : 27.4 km/h 0.0 km/h 8.2 km/h
Rafale : 35.4 km/h - -
Direction :- - East
Pression : 1022.2 hPa 1014.4 hPa -
Précipitations : 0.3 mm    
Historical Graphs
 
 
Tableau de données pour mars 24, 2017
Heure Tempé Pt rosée Pression Vent Vitesse Rafale Humidité Taux pluie (/hr) Soleil
00:00 5.3 °C 4.7 °C 1014.4 hPa ESE 6.4 km/h 9.7 km/h 96 % 0.0 mm 0 W/m2
00:05 5.3 °C 4.9 °C 1014.4 hPa SE 3.2 km/h 12.9 km/h 97 % 0.0 mm 0 W/m2
00:10 5.3 °C 4.9 °C 1014.4 hPa ESE 3.2 km/h 12.9 km/h 97 % 0.0 mm 0 W/m2
00:15 5.4 °C 5.0 °C 1014.4 hPa East 4.8 km/h 9.7 km/h 97 % 0.0 mm 0 W/m2
00:20 5.5 °C 5.1 °C 1014.4 hPa East 4.8 km/h 8.0 km/h 97 % 0.0 mm 0 W/m2
00:25 5.5 °C 5.1 °C 1014.4 hPa East 4.8 km/h 9.7 km/h 97 % 0.0 mm 0 W/m2
00:30 5.5 °C 5.1 °C 1014.4 hPa East 3.2 km/h 9.7 km/h 97 % 0.0 mm 0 W/m2
00:35 5.6 °C 5.1 °C 1014.8 hPa East 4.8 km/h 9.7 km/h 97 % 0.0 mm 0 W/m2
00:40 5.6 °C 5.1 °C 1014.8 hPa East 4.8 km/h 11.3 km/h 97 % 0.0 mm 0 W/m2
00:45 5.6 °C 5.2 °C 1014.8 hPa East 4.8 km/h 11.3 km/h 97 % 0.0 mm 0 W/m2
00:50 5.6 °C 5.2 °C 1014.8 hPa East 1.6 km/h 9.7 km/h 97 % 0.0 mm 0 W/m2
00:55 5.7 °C 5.2 °C 1014.8 hPa East 1.6 km/h 11.3 km/h 97 % 0.0 mm 0 W/m2
01:00 5.7 °C 5.2 °C 1014.8 hPa ESE 4.8 km/h 11.3 km/h 97 % 0.0 mm 0 W/m2
01:05 5.7 °C 5.2 °C 1014.8 hPa SE 3.2 km/h 9.7 km/h 97 % 0.0 mm 0 W/m2
01:10 5.6 °C 5.2 °C 1014.8 hPa East 1.6 km/h 11.3 km/h 97 % 0.0 mm 0 W/m2
01:15 5.6 °C 5.1 °C 1014.8 hPa ESE 6.4 km/h 12.9 km/h 97 % 0.0 mm 0 W/m2
01:20 5.5 °C 5.1 °C 1015.1 hPa East 8.0 km/h 14.5 km/h 97 % 0.0 mm 0 W/m2
01:25 5.4 °C 5.0 °C 1015.1 hPa SE 6.4 km/h 14.5 km/h 97 % 0.0 mm 0 W/m2
01:30 5.4 °C 5.0 °C 1015.1 hPa SE 4.8 km/h 12.9 km/h 97 % 0.0 mm 0 W/m2
01:35 5.4 °C 5.0 °C 1015.1 hPa ESE 8.0 km/h 11.3 km/h 97 % 0.0 mm 0 W/m2
01:40 5.3 °C 4.7 °C 1015.1 hPa ESE 4.8 km/h 11.3 km/h 96 % 0.0 mm 0 W/m2
01:45 5.2 °C 4.6 °C 1015.1 hPa East 1.6 km/h 11.3 km/h 96 % 0.0 mm 0 W/m2
01:50 5.1 °C 4.5 °C 1015.1 hPa ESE 1.6 km/h 9.7 km/h 96 % 0.0 mm 0 W/m2
01:55 5.0 °C 4.4 °C 1015.1 hPa SE 3.2 km/h 11.3 km/h 96 % 0.0 mm 0 W/m2
02:00 4.9 °C 4.4 °C 1015.1 hPa ESE 6.4 km/h 11.3 km/h 96 % 0.0 mm 0 W/m2
02:05 4.8 °C 4.2 °C 1015.1 hPa East 4.8 km/h 9.7 km/h 96 % 0.0 mm 0 W/m2
02:10 4.8 °C 4.3 °C 1015.5 hPa ESE 1.6 km/h 9.7 km/h 97 % 0.0 mm 0 W/m2
02:15 4.7 °C 4.3 °C 1015.5 hPa SE 6.4 km/h 11.3 km/h 97 % 0.0 mm 0 W/m2
02:20 4.8 °C 4.3 °C 1015.5 hPa SE 4.8 km/h 11.3 km/h 97 % 0.0 mm 0 W/m2
02:25 4.7 °C 4.3 °C 1015.5 hPa SSE 1.6 km/h 11.3 km/h 97 % 0.0 mm 0 W/m2
02:30 4.7 °C 4.2 °C 1015.5 hPa ESE 3.2 km/h 11.3 km/h 97 % 0.0 mm 0 W/m2
02:35 4.6 °C 4.2 °C 1015.5 hPa ESE 3.2 km/h 11.3 km/h 97 % 0.0 mm 0 W/m2
02:40 4.6 °C 4.1 °C 1015.5 hPa ESE 6.4 km/h 11.3 km/h 97 % 0.0 mm 0 W/m2
02:45 4.4 °C 4.0 °C 1015.5 hPa ESE 3.2 km/h 9.7 km/h 97 % 0.0 mm 0 W/m2
02:50 4.4 °C 4.0 °C 1015.5 hPa SSE 3.2 km/h 9.7 km/h 97 % 0.0 mm 0 W/m2
02:55 4.4 °C 4.0 °C 1015.5 hPa Calm   11.3 km/h 97 % 0.0 mm 0 W/m2
03:00 4.4 °C 4.0 °C 1015.8 hPa SE 1.6 km/h 11.3 km/h 97 % 0.0 mm 0 W/m2
03:05 4.3 °C 3.8 °C 1015.8 hPa SSE 1.6 km/h 11.3 km/h 97 % 0.0 mm 0 W/m2
03:10 4.3 °C 3.8 °C 1015.8 hPa ESE 4.8 km/h 8.0 km/h 97 % 0.0 mm 0 W/m2
03:15 4.2 °C 3.8 °C 1015.8 hPa SE 3.2 km/h 9.7 km/h 97 % 0.0 mm 0 W/m2
03:20 4.2 °C 3.8 °C 1015.8 hPa SE 3.2 km/h 9.7 km/h 97 % 0.0 mm 0 W/m2
03:25 4.2 °C 3.7 °C 1015.8 hPa SE 6.4 km/h 8.0 km/h 97 % 0.0 mm 0 W/m2
03:30 4.1 °C 3.7 °C 1016.1 hPa SE 8.0 km/h 9.7 km/h 97 % 0.0 mm 0 W/m2
03:35 4.1 °C 3.7 °C 1016.1 hPa SE 4.8 km/h 11.3 km/h 97 % 0.0 mm 0 W/m2
03:40 4.1 °C 3.7 °C 1016.1 hPa SE 3.2 km/h 11.3 km/h 97 % 0.0 mm 0 W/m2
03:45 4.1 °C 3.6 °C 1016.1 hPa SSE 4.8 km/h 9.7 km/h 97 % 0.0 mm 0 W/m2
03:55 4.1 °C 3.6 °C 1016.1 hPa SE 3.2 km/h 12.9 km/h 97 % 0.0 mm 0 W/m2
04:00 4.0 °C 3.6 °C 1016.1 hPa Calm   8.0 km/h 97 % 0.0 mm 0 W/m2
04:05 3.9 °C 3.5 °C 1016.1 hPa SE 1.6 km/h 4.8 km/h 97 % 0.0 mm 0 W/m2
04:10 3.7 °C 3.1 °C 1016.1 hPa SE 1.6 km/h 4.8 km/h 96 % 0.0 mm 0 W/m2
04:15 3.4 °C 3.0 °C 1016.1 hPa Calm   4.8 km/h 97 % 0.0 mm 0 W/m2
04:20 3.4 °C 2.8 °C 1016.5 hPa ESE 3.2 km/h 8.0 km/h 96 % 0.0 mm 0 W/m2
04:30 3.6 °C 3.1 °C 1016.5 hPa Calm   11.3 km/h 97 % 0.0 mm 0 W/m2
04:35 3.6 °C 3.1 °C 1016.5 hPa SE 3.2 km/h 8.0 km/h 97 % 0.0 mm 0 W/m2
04:40 3.4 °C 3.0 °C 1016.5 hPa ESE 3.2 km/h 9.7 km/h 97 % 0.0 mm 0 W/m2
04:45 3.4 °C 3.0 °C 1016.8 hPa Calm   9.7 km/h 97 % 0.0 mm 0 W/m2
04:50 3.5 °C 3.1 °C 1016.8 hPa ESE 3.2 km/h 8.0 km/h 97 % 0.0 mm 0 W/m2
04:55 3.6 °C 3.1 °C 1016.8 hPa ESE 1.6 km/h 11.3 km/h 97 % 0.0 mm 0 W/m2
05:00 3.6 °C 3.2 °C 1016.8 hPa ESE 6.4 km/h 11.3 km/h 97 % 0.0 mm 0 W/m2
05:05 3.6 °C 3.1 °C 1016.8 hPa Calm   6.4 km/h 97 % 0.0 mm 0 W/m2
05:10 3.4 °C 3.0 °C 1017.2 hPa ESE 4.8 km/h 6.4 km/h 97 % 0.0 mm 0 W/m2
05:15 3.4 °C 3.0 °C 1017.2 hPa ESE 4.8 km/h 8.0 km/h 97 % 0.0 mm 0 W/m2
05:20 3.3 °C 2.9 °C 1017.2 hPa East 3.2 km/h 8.0 km/h 97 % 0.3 mm 0 W/m2
05:30 3.3 °C 2.8 °C 1017.2 hPa SE 3.2 km/h 11.3 km/h 97 % 0.3 mm 0 W/m2
05:35 3.2 °C 2.8 °C 1017.2 hPa ESE 1.6 km/h 11.3 km/h 97 % 0.3 mm 0 W/m2
05:40 3.1 °C 2.7 °C 1017.5 hPa ESE 3.2 km/h 8.0 km/h 97 % 0.3 mm 0 W/m2
05:45 3.1 °C 2.7 °C 1017.5 hPa ESE 1.6 km/h 8.0 km/h 97 % 0.3 mm 0 W/m2
05:50 3.2 °C 2.7 °C 1017.5 hPa ESE 4.8 km/h 8.0 km/h 97 % 0.3 mm 0 W/m2
05:55 3.2 °C 2.7 °C 1017.5 hPa ESE 1.6 km/h 8.0 km/h 97 % 0.3 mm 0 W/m2
06:00 3.1 °C 2.6 °C 1017.5 hPa ESE 3.2 km/h 6.4 km/h 97 % 0.3 mm 0 W/m2
06:05 3.0 °C 2.6 °C 1017.5 hPa SE 4.8 km/h 6.4 km/h 97 % 0.3 mm 0 W/m2
06:10 2.9 °C 2.5 °C 1017.5 hPa SE 3.2 km/h 4.8 km/h 97 % 0.3 mm 0 W/m2
06:15 2.8 °C 2.4 °C 1017.8 hPa SE 3.2 km/h 6.4 km/h 97 % 0.3 mm 0 W/m2
06:20 2.8 °C 2.4 °C 1017.8 hPa SE 1.6 km/h 6.4 km/h 97 % 0.0 mm 0 W/m2
06:25 2.7 °C 2.3 °C 1017.8 hPa ESE 1.6 km/h 6.4 km/h 97 % 0.0 mm 0 W/m2
06:30 2.8 °C 2.3 °C 1017.8 hPa ESE 4.8 km/h 6.4 km/h 97 % 0.0 mm 0 W/m2
06:35 2.6 °C 2.2 °C 1017.8 hPa Calm   6.4 km/h 97 % 0.0 mm 0 W/m2
06:40 2.6 °C 2.1 °C 1017.8 hPa Calm   4.8 km/h 97 % 0.0 mm 0 W/m2
06:45 2.4 °C 2.0 °C 1018.2 hPa Calm   4.8 km/h 97 % 0.0 mm 0 W/m2
06:50 2.3 °C 1.9 °C 1018.2 hPa Calm   3.2 km/h 97 % 0.0 mm 0 W/m2
06:55 2.1 °C 1.7 °C 1018.2 hPa Calm   3.2 km/h 97 % 0.0 mm 0 W/m2
07:00 2.1 °C 1.6 °C 1018.2 hPa Calm   4.8 km/h 97 % 0.0 mm 0 W/m2
07:05 2.1 °C 1.7 °C 1018.2 hPa Calm   4.8 km/h 97 % 0.0 mm 0 W/m2
07:10 2.1 °C 1.7 °C 1018.5 hPa Calm   6.4 km/h 97 % 0.0 mm 5 W/m2
07:15 2.2 °C 1.7 °C 1018.5 hPa ESE 3.2 km/h 6.4 km/h 97 % 0.0 mm 9 W/m2
07:20 2.2 °C 1.7 °C 1018.5 hPa Calm   4.8 km/h 97 % 0.0 mm 12 W/m2
07:25 2.1 °C 1.6 °C 1018.5 hPa Calm   4.8 km/h 97 % 0.0 mm 14 W/m2
07:30 2.1 °C 1.6 °C 1018.8 hPa ESE 1.6 km/h 4.8 km/h 97 % 0.0 mm 16 W/m2
07:35 2.3 °C 1.9 °C 1018.8 hPa Calm   4.8 km/h 97 % 0.0 mm 18 W/m2
07:40 2.4 °C 2.0 °C 1019.2 hPa ENE 1.6 km/h 8.0 km/h 97 % 0.0 mm 19 W/m2
07:45 2.6 °C 2.1 °C 1019.2 hPa Calm   8.0 km/h 97 % 0.0 mm 21 W/m2
07:50 2.6 °C 2.2 °C 1019.2 hPa ENE 3.2 km/h 6.4 km/h 97 % 0.0 mm 23 W/m2
07:55 2.8 °C 2.3 °C 1019.2 hPa ENE 4.8 km/h 6.4 km/h 97 % 0.0 mm 25 W/m2
08:00 3.0 °C 2.6 °C 1019.2 hPa East 3.2 km/h 12.9 km/h 97 % 0.0 mm 26 W/m2
08:05 3.2 °C 2.7 °C 1019.2 hPa East 8.0 km/h 12.9 km/h 97 % 0.0 mm 26 W/m2
08:10 3.3 °C 2.9 °C 1019.2 hPa East 3.2 km/h 12.9 km/h 97 % 0.0 mm 139 W/m2
08:15 3.5 °C 3.1 °C 1019.5 hPa SE 6.4 km/h 12.9 km/h 97 % 0.0 mm 156 W/m2
08:20 3.7 °C 3.4 °C 1019.5 hPa East 12.9 km/h 14.5 km/h 98 % 0.0 mm 174 W/m2
08:25 3.9 °C 3.5 °C 1019.9 hPa ENE 3.2 km/h 14.5 km/h 97 % 0.0 mm 190 W/m2
08:30 4.1 °C 3.6 °C 1019.9 hPa East 4.8 km/h 16.1 km/h 97 % 0.0 mm 209 W/m2
08:35 4.3 °C 3.8 °C 1019.9 hPa ENE 8.0 km/h 16.1 km/h 97 % 0.0 mm 223 W/m2
08:40 4.5 °C 4.1 °C 1019.9 hPa ENE 4.8 km/h 12.9 km/h 97 % 0.0 mm 239 W/m2
08:45 4.7 °C 4.2 °C 1020.2 hPa ENE 6.4 km/h 16.1 km/h 97 % 0.0 mm 37 W/m2
08:50 4.8 °C 4.3 °C 1020.2 hPa East 9.7 km/h 16.1 km/h 97 % 0.0 mm 37 W/m2
08:55 5.0 °C 4.6 °C 1020.2 hPa East 8.0 km/h 14.5 km/h 97 % 0.0 mm 39 W/m2
09:00 5.2 °C 4.8 °C 1020.2 hPa ENE 8.0 km/h 14.5 km/h 97 % 0.0 mm 39 W/m2
09:05 5.5 °C 5.1 °C 1020.2 hPa East 4.8 km/h 14.5 km/h 97 % 0.0 mm 39 W/m2
09:10 5.6 °C 5.0 °C 1020.5 hPa ESE 11.3 km/h 14.5 km/h 96 % 0.0 mm 125 W/m2
09:15 5.7 °C 5.1 °C 1020.5 hPa East 8.0 km/h 14.5 km/h 96 % 0.0 mm 330 W/m2
09:20 5.8 °C 5.2 °C 1020.5 hPa ESE 9.7 km/h 14.5 km/h 96 % 0.0 mm 369 W/m2
09:25 6.3 °C 5.7 °C 1020.5 hPa East 4.8 km/h 14.5 km/h 96 % 0.0 mm 387 W/m2
09:30 6.5 °C 5.8 °C 1020.5 hPa ENE 4.8 km/h 17.7 km/h 95 % 0.0 mm 403 W/m2
09:35 6.8 °C 5.9 °C 1020.5 hPa ENE 11.3 km/h 17.7 km/h 94 % 0.0 mm 413 W/m2
09:40 7.0 °C 5.9 °C 1020.5 hPa East 4.8 km/h 17.7 km/h 93 % 0.0 mm 422 W/m2
09:45 7.3 °C 6.1 °C 1020.9 hPa ENE 11.3 km/h 17.7 km/h 92 % 0.0 mm 432 W/m2
09:50 7.7 °C 6.3 °C 1020.9 hPa ENE 6.4 km/h 17.7 km/h 91 % 0.0 mm 443 W/m2
09:55 7.9 °C 6.4 °C 1020.9 hPa East 6.4 km/h 20.9 km/h 90 % 0.0 mm 457 W/m2
10:00 8.2 °C 6.5 °C 1020.9 hPa NE 9.7 km/h 20.9 km/h 89 % 0.0 mm 471 W/m2
10:05 8.3 °C 6.5 °C 1020.9 hPa East 12.9 km/h 20.9 km/h 88 % 0.0 mm 483 W/m2
10:10 8.6 °C 6.7 °C 1021.2 hPa East 14.5 km/h 17.7 km/h 88 % 0.0 mm 496 W/m2
10:20 8.9 °C 6.7 °C 1021.2 hPa ENE 12.9 km/h 20.9 km/h 86 % 0.0 mm 519 W/m2
10:25 9.2 °C 6.8 °C 1021.2 hPa ENE 8.0 km/h 19.3 km/h 85 % 0.0 mm 531 W/m2
10:30 9.4 °C 7.0 °C 1021.2 hPa NE 4.8 km/h 20.9 km/h 85 % 0.0 mm 540 W/m2
10:35 9.6 °C 6.8 °C 1021.2 hPa ENE 17.7 km/h 24.1 km/h 83 % 0.0 mm 552 W/m2
10:40 9.7 °C 7.1 °C 1021.2 hPa ENE 20.9 km/h 24.1 km/h 84 % 0.0 mm 564 W/m2
10:45 10.0 °C 7.2 °C 1021.2 hPa ENE 19.3 km/h 24.1 km/h 83 % 0.0 mm 577 W/m2
10:50 10.2 °C 7.2 °C 1021.2 hPa East 8.0 km/h 24.1 km/h 82 % 0.0 mm 587 W/m2
10:55 10.7 °C 7.7 °C 1021.2 hPa ENE 17.7 km/h 20.9 km/h 82 % 0.0 mm 598 W/m2
11:00 10.6 °C 7.3 °C 1021.6 hPa ENE 8.0 km/h 22.5 km/h 80 % 0.0 mm 608 W/m2
11:05 10.7 °C 7.2 °C 1021.6 hPa East 11.3 km/h 22.5 km/h 79 % 0.0 mm 617 W/m2
11:10 10.9 °C 8.0 °C 1021.6 hPa ENE 8.0 km/h 22.5 km/h 82 % 0.0 mm 638 W/m2
11:15 11.2 °C 7.7 °C 1021.6 hPa ENE 14.5 km/h 20.9 km/h 79 % 0.0 mm 680 W/m2
11:20 11.3 °C 7.8 °C 1021.6 hPa ESE 4.8 km/h 20.9 km/h 79 % 0.0 mm 642 W/m2
11:25 11.6 °C 7.5 °C 1021.6 hPa ENE 16.1 km/h 27.4 km/h 76 % 0.0 mm 649 W/m2
11:30 11.4 °C 7.1 °C 1021.6 hPa ESE 8.0 km/h 27.4 km/h 75 % 0.0 mm 657 W/m2
11:35 11.6 °C 6.9 °C 1021.6 hPa East 19.3 km/h 24.1 km/h 73 % 0.0 mm 666 W/m2
11:40 11.6 °C 6.7 °C 1021.6 hPa East 9.7 km/h 24.1 km/h 72 % 0.0 mm 673 W/m2
11:45 11.7 °C 7.0 °C 1021.6 hPa East 16.1 km/h 25.7 km/h 73 % 0.0 mm 680 W/m2
11:50 11.8 °C 7.1 °C 1021.6 hPa NE 3.2 km/h 25.7 km/h 73 % 0.0 mm 693 W/m2
11:55 12.1 °C 7.6 °C 1021.6 hPa ENE 20.9 km/h 27.4 km/h 74 % 0.0 mm 703 W/m2
12:00 11.9 °C 7.3 °C 1021.6 hPa ENE 14.5 km/h 32.2 km/h 73 % 0.0 mm 701 W/m2
12:05 12.2 °C 6.6 °C 1021.6 hPa ESE 11.3 km/h 32.2 km/h 69 % 0.0 mm 712 W/m2
12:10 12.3 °C 7.4 °C 1021.6 hPa ESE 8.0 km/h 25.7 km/h 72 % 0.0 mm 707 W/m2
12:15 12.7 °C 7.8 °C 1021.6 hPa ENE 8.0 km/h 22.5 km/h 72 % 0.0 mm 710 W/m2
12:20 12.6 °C 6.6 °C 1021.6 hPa ENE 14.5 km/h 25.7 km/h 67 % 0.0 mm 719 W/m2
12:25 12.9 °C 7.1 °C 1021.6 hPa ENE 22.5 km/h 25.7 km/h 68 % 0.0 mm 722 W/m2
12:30 12.7 °C 7.1 °C 1021.6 hPa ENE 19.3 km/h 25.7 km/h 69 % 0.0 mm 724 W/m2
12:35 13.2 °C 7.4 °C 1021.6 hPa NNW 4.8 km/h 27.4 km/h 68 % 0.0 mm 729 W/m2
12:40 13.3 °C 7.3 °C 1021.6 hPa ENE 8.0 km/h 27.4 km/h 67 % 0.0 mm 747 W/m2
12:45 13.4 °C 7.4 °C 1021.6 hPa NE 17.7 km/h 25.7 km/h 67 % 0.0 mm 682 W/m2
12:50 13.1 °C 6.4 °C 1021.2 hPa NE 8.0 km/h 25.7 km/h 64 % 0.0 mm 758 W/m2
12:55 13.7 °C 7.9 °C 1021.6 hPa East 24.1 km/h 25.7 km/h 68 % 0.0 mm 765 W/m2
13:00 13.8 °C 6.9 °C 1021.6 hPa ENE 12.9 km/h 29.0 km/h 63 % 0.0 mm 800 W/m2
13:05 13.3 °C 6.4 °C 1021.6 hPa ENE 16.1 km/h 29.0 km/h 63 % 0.0 mm 696 W/m2
13:10 13.3 °C 6.1 °C 1021.2 hPa East 17.7 km/h 29.0 km/h 62 % 0.0 mm 696 W/m2
13:15 13.0 °C 6.1 °C 1021.2 hPa East 14.5 km/h 29.0 km/h 63 % 0.0 mm 773 W/m2
13:20 13.3 °C 6.9 °C 1021.2 hPa East 1.6 km/h 25.7 km/h 65 % 0.0 mm 708 W/m2
13:25 14.2 °C 6.7 °C 1021.2 hPa ENE 6.4 km/h 22.5 km/h 61 % 0.0 mm 728 W/m2
13:30 14.1 °C 6.7 °C 1021.2 hPa NE 6.4 km/h 27.4 km/h 61 % 0.0 mm 737 W/m2
13:35 14.0 °C 5.9 °C 1021.2 hPa ENE 11.3 km/h 27.4 km/h 58 % 0.0 mm 721 W/m2
13:40 13.9 °C 6.8 °C 1021.2 hPa NE 14.5 km/h 25.7 km/h 62 % 0.0 mm 715 W/m2
13:45 14.2 °C 7.3 °C 1021.2 hPa NE 11.3 km/h 30.6 km/h 63 % 0.0 mm 740 W/m2
13:50 14.4 °C 6.7 °C 1020.9 hPa ENE 19.3 km/h 30.6 km/h 60 % 0.0 mm 788 W/m2
13:55 14.0 °C 6.6 °C 1021.2 hPa East 20.9 km/h 29.0 km/h 61 % 0.0 mm 793 W/m2
14:00 13.8 °C 6.9 °C 1020.9 hPa East 20.9 km/h 29.0 km/h 63 % 0.0 mm 747 W/m2
14:05 14.0 °C 6.6 °C 1020.9 hPa East 17.7 km/h 25.7 km/h 61 % 0.0 mm 763 W/m2
14:10 13.7 °C 6.1 °C 1020.9 hPa ENE 24.1 km/h 27.4 km/h 60 % 0.0 mm 766 W/m2
14:15 14.1 °C 7.1 °C 1020.9 hPa ENE 17.7 km/h 27.4 km/h 63 % 0.0 mm 782 W/m2
14:20 14.1 °C 7.2 °C 1020.9 hPa NE 19.3 km/h 30.6 km/h 63 % 0.0 mm 842 W/m2
14:25 13.6 °C 6.2 °C 1020.9 hPa East 24.1 km/h 30.6 km/h 61 % 0.0 mm 443 W/m2
14:30 13.2 °C 6.6 °C 1020.9 hPa East 19.3 km/h 29.0 km/h 64 % 0.0 mm 510 W/m2
14:35 13.3 °C 6.4 °C 1020.5 hPa ENE 22.5 km/h 29.0 km/h 63 % 0.0 mm 455 W/m2
14:40 13.3 °C 6.9 °C 1020.5 hPa ENE 11.3 km/h 25.7 km/h 65 % 0.0 mm 390 W/m2
14:45 13.3 °C 6.6 °C 1020.5 hPa ENE 14.5 km/h 27.4 km/h 64 % 0.0 mm 355 W/m2
14:50 12.9 °C 6.2 °C 1020.5 hPa East 19.3 km/h 27.4 km/h 64 % 0.0 mm 411 W/m2
14:55 13.2 °C 7.0 °C 1020.5 hPa ENE 8.0 km/h 27.4 km/h 66 % 0.0 mm 520 W/m2
15:00 13.9 °C 6.8 °C 1020.9 hPa ENE 19.3 km/h 27.4 km/h 62 % 0.0 mm 592 W/m2
15:05 14.1 °C 7.6 °C 1020.9 hPa East 20.9 km/h 29.0 km/h 65 % 0.0 mm 527 W/m2
15:10 13.7 °C 6.6 °C 1020.9 hPa East 27.4 km/h 30.6 km/h 62 % 0.0 mm 336 W/m2
15:15 13.2 °C 6.3 °C 1020.9 hPa East 16.1 km/h 35.4 km/h 63 % 0.0 mm 297 W/m2
15:20 13.0 °C 6.8 °C 1020.5 hPa NE 8.0 km/h 35.4 km/h 66 % 0.0 mm 295 W/m2
15:25 12.8 °C 6.9 °C 1020.5 hPa ENE 8.0 km/h 30.6 km/h 67 % 0.0 mm 288 W/m2
15:30 12.8 °C 6.8 °C 1020.5 hPa NNE 14.5 km/h 27.4 km/h 67 % 0.0 mm 295 W/m2
15:35 12.6 °C 7.1 °C 1020.5 hPa NE 8.0 km/h 27.4 km/h 69 % 0.0 mm 271 W/m2
15:40 12.6 °C 6.8 °C 1020.9 hPa NE 19.3 km/h 24.1 km/h 68 % 0.0 mm 257 W/m2
15:45 12.3 °C 6.8 °C 1020.5 hPa ENE 16.1 km/h 35.4 km/h 69 % 0.0 mm 232 W/m2
15:50 12.2 °C 6.7 °C 1020.5 hPa NE 22.5 km/h 35.4 km/h 69 % 0.0 mm 267 W/m2
15:55 12.2 °C 6.7 °C 1020.9 hPa East 16.1 km/h 27.4 km/h 69 % 0.0 mm 216 W/m2
16:00 12.2 °C 6.9 °C 1020.9 hPa East 9.7 km/h 25.7 km/h 70 % 0.0 mm 155 W/m2
16:05 12.1 °C 7.0 °C 1020.9 hPa East 11.3 km/h 24.1 km/h 71 % 0.0 mm 160 W/m2
16:10 12.1 °C 7.2 °C 1020.9 hPa ENE 11.3 km/h 22.5 km/h 72 % 0.0 mm 104 W/m2
16:15 11.9 °C 7.1 °C 1020.9 hPa NE 16.1 km/h 25.7 km/h 72 % 0.0 mm 105 W/m2
16:20 11.8 °C 6.9 °C 1020.9 hPa ENE 27.4 km/h 27.4 km/h 72 % 0.0 mm 137 W/m2
16:25 11.8 °C 7.1 °C 1020.9 hPa ENE 11.3 km/h 27.4 km/h 73 % 0.0 mm 132 W/m2
16:30 11.8 °C 7.1 °C 1020.9 hPa ENE 11.3 km/h 25.7 km/h 73 % 0.0 mm 120 W/m2
16:35 11.8 °C 7.1 °C 1020.9 hPa East 8.0 km/h 25.7 km/h 73 % 0.0 mm 105 W/m2
16:40 11.8 °C 7.3 °C 1020.9 hPa ENE 16.1 km/h 22.5 km/h 74 % 0.0 mm 113 W/m2
16:45 11.7 °C 7.2 °C 1021.2 hPa ENE 16.1 km/h 30.6 km/h 74 % 0.0 mm 116 W/m2
16:50 11.6 °C 7.1 °C 1021.2 hPa ENE 6.4 km/h 30.6 km/h 74 % 0.0 mm 111 W/m2
16:55 11.6 °C 7.3 °C 1021.2 hPa East 16.1 km/h 25.7 km/h 75 % 0.0 mm 90 W/m2
17:00 11.5 °C 7.4 °C 1021.2 hPa NE 8.0 km/h 25.7 km/h 76 % 0.0 mm 105 W/m2
17:05 11.5 °C 7.6 °C 1021.2 hPa East 16.1 km/h 24.1 km/h 77 % 0.0 mm 79 W/m2
17:10 11.4 °C 7.5 °C 1021.2 hPa SE 9.7 km/h 24.1 km/h 77 % 0.0 mm 72 W/m2
17:15 11.4 °C 7.5 °C 1021.2 hPa ENE 12.9 km/h 24.1 km/h 77 % 0.0 mm 107 W/m2
17:20 11.4 °C 7.7 °C 1021.2 hPa ESE 11.3 km/h 24.1 km/h 78 % 0.0 mm 105 W/m2
17:25 11.4 °C 7.7 °C 1021.2 hPa ENE 8.0 km/h 24.1 km/h 78 % 0.0 mm 114 W/m2
17:30 11.5 °C 7.8 °C 1021.2 hPa ESE 8.0 km/h 24.1 km/h 78 % 0.0 mm 125 W/m2
17:35 11.6 °C 7.8 °C 1021.2 hPa ENE 12.9 km/h 25.7 km/h 78 % 0.0 mm 97 W/m2
17:40 11.5 °C 8.0 °C 1021.2 hPa East 11.3 km/h 25.7 km/h 79 % 0.0 mm 90 W/m2
17:45 11.4 °C 7.9 °C 1021.2 hPa ENE 8.0 km/h 24.1 km/h 79 % 0.0 mm 83 W/m2
17:50 11.4 °C 7.9 °C 1020.9 hPa East 14.5 km/h 24.1 km/h 79 % 0.0 mm 77 W/m2
17:55 11.4 °C 8.1 °C 1020.9 hPa NE 6.4 km/h 24.1 km/h 80 % 0.0 mm 76 W/m2
18:00 11.3 °C 8.0 °C 1020.9 hPa NE 11.3 km/h 20.9 km/h 80 % 0.0 mm 77 W/m2
18:05 11.3 °C 8.0 °C 1020.9 hPa East 11.3 km/h 22.5 km/h 80 % 0.0 mm 79 W/m2
18:10 11.3 °C 8.2 °C 1020.9 hPa NNE 6.4 km/h 22.5 km/h 81 % 0.0 mm 81 W/m2
18:15 11.3 °C 8.2 °C 1021.2 hPa ENE 14.5 km/h 19.3 km/h 81 % 0.0 mm 81 W/m2
18:20 11.3 °C 8.2 °C 1021.2 hPa ENE 12.9 km/h 16.1 km/h 81 % 0.0 mm 77 W/m2
18:25 11.3 °C 8.4 °C 1021.2 hPa NE 6.4 km/h 20.9 km/h 82 % 0.0 mm 77 W/m2
18:30 11.3 °C 8.4 °C 1020.9 hPa ENE 8.0 km/h 20.9 km/h 82 % 0.0 mm 70 W/m2
18:35 11.3 °C 8.3 °C 1020.9 hPa ENE 3.2 km/h 22.5 km/h 82 % 0.0 mm 58 W/m2
18:40 11.3 °C 8.3 °C 1021.2 hPa East 8.0 km/h 22.5 km/h 82 % 0.0 mm 35 W/m2
18:45 11.2 °C 8.4 °C 1021.2 hPa ENE 16.1 km/h 22.5 km/h 83 % 0.0 mm 26 W/m2
18:50 11.2 °C 8.4 °C 1021.2 hPa NE 8.0 km/h 22.5 km/h 83 % 0.0 mm 21 W/m2
18:55 11.2 °C 8.4 °C 1021.2 hPa ENE 8.0 km/h 24.1 km/h 83 % 0.0 mm 18 W/m2
19:00 11.2 °C 8.4 °C 1021.2 hPa NE 9.7 km/h 24.1 km/h 83 % 0.0 mm 14 W/m2
19:05 11.2 °C 8.4 °C 1021.2 hPa ENE 6.4 km/h 17.7 km/h 83 % 0.0 mm 9 W/m2
19:10 11.2 °C 8.4 °C 1021.2 hPa ENE 12.9 km/h 17.7 km/h 83 % 0.0 mm 7 W/m2
19:15 11.2 °C 8.4 °C 1021.2 hPa ENE 16.1 km/h 20.9 km/h 83 % 0.0 mm 5 W/m2
19:20 11.2 °C 8.4 °C 1021.2 hPa ENE 11.3 km/h 24.1 km/h 83 % 0.0 mm 0 W/m2
19:25 11.2 °C 8.4 °C 1021.2 hPa NE 4.8 km/h 24.1 km/h 83 % 0.0 mm 0 W/m2
19:30 11.1 °C 8.5 °C 1021.2 hPa NE 11.3 km/h 20.9 km/h 84 % 0.0 mm 0 W/m2
19:35 11.2 °C 8.6 °C 1021.2 hPa ENE 11.3 km/h 20.9 km/h 84 % 0.0 mm 0 W/m2
19:40 11.2 °C 8.6 °C 1021.2 hPa ENE 4.8 km/h 24.1 km/h 84 % 0.0 mm 0 W/m2
19:45 11.2 °C 8.6 °C 1021.2 hPa East 11.3 km/h 24.1 km/h 84 % 0.0 mm 0 W/m2
19:50 11.1 °C 8.5 °C 1021.6 hPa ENE 6.4 km/h 20.9 km/h 84 % 0.0 mm 0 W/m2
19:55 11.1 °C 8.5 °C 1021.2 hPa East 11.3 km/h 17.7 km/h 84 % 0.0 mm 0 W/m2
20:00 11.1 °C 8.5 °C 1021.6 hPa ENE 6.4 km/h 20.9 km/h 84 % 0.0 mm 0 W/m2
20:05 11.1 °C 8.6 °C 1021.6 hPa ENE 6.4 km/h 20.9 km/h 85 % 0.0 mm 0 W/m2
20:10 11.1 °C 8.6 °C 1021.6 hPa NNE 6.4 km/h 17.7 km/h 85 % 0.0 mm 0 W/m2
20:15 11.1 °C 8.6 °C 1021.6 hPa NE 9.7 km/h 17.7 km/h 85 % 0.0 mm 0 W/m2
20:20 11.1 °C 8.6 °C 1021.6 hPa East 14.5 km/h 19.3 km/h 85 % 0.0 mm 0 W/m2
20:25 11.1 °C 8.6 °C 1021.9 hPa ENE 6.4 km/h 19.3 km/h 85 % 0.0 mm 0 W/m2
20:30 11.1 °C 8.6 °C 1021.9 hPa East 11.3 km/h 20.9 km/h 85 % 0.0 mm 0 W/m2
20:35 11.1 °C 8.6 °C 1021.9 hPa ENE 12.9 km/h 20.9 km/h 85 % 0.0 mm 0 W/m2
20:40 11.0 °C 8.7 °C 1021.9 hPa ENE 6.4 km/h 17.7 km/h 86 % 0.0 mm 0 W/m2
20:45 10.9 °C 8.8 °C 1021.9 hPa ENE 8.0 km/h 19.3 km/h 87 % 0.0 mm 0 W/m2
20:50 10.8 °C 8.7 °C 1021.9 hPa ENE 8.0 km/h 19.3 km/h 87 % 0.0 mm 0 W/m2
20:55 10.7 °C 8.8 °C 1021.9 hPa NNE 14.5 km/h 17.7 km/h 88 % 0.0 mm 0 W/m2
21:00 10.6 °C 8.8 °C 1021.9 hPa NE 11.3 km/h 19.3 km/h 89 % 0.0 mm 0 W/m2
21:05 10.6 °C 8.8 °C 1021.9 hPa NE 1.6 km/h 19.3 km/h 89 % 0.0 mm 0 W/m2
21:10 10.6 °C 8.9 °C 1021.9 hPa NE 3.2 km/h 17.7 km/h 89 % 0.0 mm 0 W/m2
21:15 10.7 °C 8.9 °C 1022.2 hPa NE 4.8 km/h 19.3 km/h 89 % 0.0 mm 0 W/m2
21:20 10.7 °C 8.8 °C 1022.2 hPa NE 4.8 km/h 19.3 km/h 88 % 0.0 mm 0 W/m2
21:25 10.8 °C 8.9 °C 1022.2 hPa ENE 4.8 km/h 14.5 km/h 88 % 0.0 mm 0 W/m2
21:30 10.8 °C 8.9 °C 1022.2 hPa NNE 4.8 km/h 14.5 km/h 88 % 0.0 mm 0 W/m2
21:35 10.8 °C 8.9 °C 1022.2 hPa NE 9.7 km/h 14.5 km/h 88 % 0.0 mm 0 W/m2
21:40 10.7 °C 8.8 °C 1022.2 hPa NNE 4.8 km/h 14.5 km/h 88 % 0.0 mm 0 W/m2
21:45 10.8 °C 8.9 °C 1022.2 hPa NE 4.8 km/h 14.5 km/h 88 % 0.0 mm 0 W/m2
21:50 10.7 °C 9.0 °C 1022.2 hPa NNE 8.0 km/h 14.5 km/h 89 % 0.0 mm 0 W/m2
21:55 10.7 °C 8.9 °C 1022.2 hPa East 4.8 km/h 11.3 km/h 89 % 0.0 mm 0 W/m2
22:00 10.7 °C 8.9 °C 1022.2 hPa NNE 8.0 km/h 14.5 km/h 89 % 0.0 mm 0 W/m2
22:05 10.7 °C 9.0 °C 1022.2 hPa NNE 1.6 km/h 14.5 km/h 89 % 0.0 mm 0 W/m2
22:10 10.7 °C 8.8 °C 1022.2 hPa NNE 1.6 km/h 9.7 km/h 88 % 0.0 mm 0 W/m2
22:15 10.7 °C 8.9 °C 1021.9 hPa NE 4.8 km/h 9.7 km/h 89 % 0.0 mm 0 W/m2
22:20 10.7 °C 8.8 °C 1021.9 hPa NNE 3.2 km/h 9.7 km/h 88 % 0.0 mm 0 W/m2
22:25 10.6 °C 8.9 °C 1021.9 hPa NNE 4.8 km/h 11.3 km/h 89 % 0.0 mm 0 W/m2
22:30 10.7 °C 8.9 °C 1021.9 hPa NE 6.4 km/h 11.3 km/h 89 % 0.0 mm 0 W/m2
22:35 10.7 °C 8.9 °C 1021.9 hPa North 4.8 km/h 12.9 km/h 89 % 0.0 mm 0 W/m2
22:40 10.7 °C 8.8 °C 1021.9 hPa NE 4.8 km/h 12.9 km/h 88 % 0.0 mm 0 W/m2
22:45 10.7 °C 8.9 °C 1021.9 hPa NNE 8.0 km/h 14.5 km/h 89 % 0.0 mm 0 W/m2
22:50 10.6 °C 8.7 °C 1021.6 hPa NNE 9.7 km/h 14.5 km/h 88 % 0.0 mm 0 W/m2
22:55 10.6 °C 8.7 °C 1021.6 hPa NNE 8.0 km/h 19.3 km/h 88 % 0.0 mm 0 W/m2
23:00 10.5 °C 8.6 °C 1021.6 hPa NE 6.4 km/h 19.3 km/h 88 % 0.0 mm 0 W/m2
23:05 10.6 °C 8.7 °C 1021.6 hPa ENE 12.9 km/h 17.7 km/h 88 % 0.0 mm 0 W/m2
23:10 10.6 °C 8.7 °C 1021.6 hPa NE 4.8 km/h 17.7 km/h 88 % 0.0 mm 0 W/m2
23:15 10.6 °C 8.7 °C 1021.2 hPa NNE 3.2 km/h 19.3 km/h 88 % 0.0 mm 0 W/m2
23:20 10.7 °C 8.8 °C 1021.2 hPa ENE 3.2 km/h 19.3 km/h 88 % 0.0 mm 0 W/m2
23:25 10.7 °C 8.8 °C 1021.2 hPa NE 3.2 km/h 19.3 km/h 88 % 0.0 mm 0 W/m2
23:30 10.7 °C 8.8 °C 1021.2 hPa East 17.7 km/h 22.5 km/h 88 % 0.0 mm 0 W/m2
23:35 10.7 °C 8.8 °C 1021.2 hPa NE 3.2 km/h 22.5 km/h 88 % 0.0 mm 0 W/m2
23:40 10.8 °C 8.9 °C 1021.6 hPa NNE 4.8 km/h 22.5 km/h 88 % 0.0 mm 0 W/m2
23:45 10.8 °C 8.9 °C 1021.6 hPa NE 9.7 km/h 20.9 km/h 88 % 0.0 mm 0 W/m2
23:50 10.8 °C 8.7 °C 1021.6 hPa NE 6.4 km/h 19.3 km/h 87 % 0.0 mm 0 W/m2
23:55 10.8 °C 8.9 °C 1021.2 hPa ENE 11.3 km/h 25.7 km/h 88 % 0.0 mm 0 W/m2
Avec l'autorisation de Weather Underground - 1.75 mb